sensor_id;sensor_type;location;lat;lon;timestamp;P1;P2;P0
76049;PMS7003;64967;50.234;19.224;2024-02-23T00:01:05;3.25;2.50;2.00
76049;PMS7003;64967;50.234;19.224;2024-02-23T00:03:33;1.00;1.00;1.00
76049;PMS7003;64967;50.234;19.224;2024-02-23T00:06:02;2.75;2.75;2.50
76049;PMS7003;64967;50.234;19.224;2024-02-23T00:08:29;2.00;2.00;1.00
76049;PMS7003;64967;50.234;19.224;2024-02-23T00:10:55;1.00;1.00;1.00
76049;PMS7003;64967;50.234;19.224;2024-02-23T00:13:22;3.00;3.00;2.00
76049;PMS7003;64967;50.234;19.224;2024-02-23T00:15:49;2.75;2.25;2.00
76049;PMS7003;64967;50.234;19.224;2024-02-23T00:18:16;5.75;3.25;2.75
76049;PMS7003;64967;50.234;19.224;2024-02-23T00:20:43;5.50;3.25;3.00
76049;PMS7003;64967;50.234;19.224;2024-02-23T00:23:10;6.50;4.00;3.25
76049;PMS7003;64967;50.234;19.224;2024-02-23T00:25:37;3.50;3.50;3.25
76049;PMS7003;64967;50.234;19.224;2024-02-23T00:28:04;5.00;4.00;4.00
76049;PMS7003;64967;50.234;19.224;2024-02-23T00:30:31;4.75;4.00;3.00
76049;PMS7003;64967;50.234;19.224;2024-02-23T00:32:58;3.00;3.00;2.25
76049;PMS7003;64967;50.234;19.224;2024-02-23T00:35:25;3.00;2.75;2.00
76049;PMS7003;64967;50.234;19.224;2024-02-23T00:37:51;2.25;2.25;2.00
76049;PMS7003;64967;50.234;19.224;2024-02-23T00:40:18;5.00;3.00;3.00
76049;PMS7003;64967;50.234;19.224;2024-02-23T00:42:45;2.00;2.00;2.00
76049;PMS7003;64967;50.234;19.224;2024-02-23T00:45:11;3.75;3.00;2.25
76049;PMS7003;64967;50.234;19.224;2024-02-23T00:47:38;2.75;2.00;2.00
76049;PMS7003;64967;50.234;19.224;2024-02-23T00:50:05;1.00;1.00;1.00
76049;PMS7003;64967;50.234;19.224;2024-02-23T00:52:32;2.00;2.00;1.50
76049;PMS7003;64967;50.234;19.224;2024-02-23T00:55:01;1.75;1.75;1.00
76049;PMS7003;64967;50.234;19.224;2024-02-23T00:57:28;2.25;2.25;2.00
76049;PMS7003;64967;50.234;19.224;2024-02-23T00:59:56;2.00;2.00;2.00
76049;PMS7003;64967;50.234;19.224;2024-02-23T01:02:24;3.00;2.00;2.00
76049;PMS7003;64967;50.234;19.224;2024-02-23T01:04:50;2.00;2.00;2.00
76049;PMS7003;64967;50.234;19.224;2024-02-23T01:07:23;2.50;2.50;2.00
76049;PMS7003;64967;50.234;19.224;2024-02-23T01:09:49;2.25;2.00;2.00
76049;PMS7003;64967;50.234;19.224;2024-02-23T01:12:16;3.00;2.50;2.25
76049;PMS7003;64967;50.234;19.224;2024-02-23T01:14:43;1.00;1.00;1.00
76049;PMS7003;64967;50.234;19.224;2024-02-23T01:17:09;3.00;2.00;1.75
76049;PMS7003;64967;50.234;19.224;2024-02-23T01:19:36;3.00;3.00;2.25
76049;PMS7003;64967;50.234;19.224;2024-02-23T01:22:03;4.75;3.00;2.00
76049;PMS7003;64967;50.234;19.224;2024-02-23T01:24:30;3.50;3.00;2.00
76049;PMS7003;64967;50.234;19.224;2024-02-23T01:26:57;3.75;2.00;2.00
76049;PMS7003;64967;50.234;19.224;2024-02-23T01:29:25;2.00;2.00;2.00
76049;PMS7003;64967;50.234;19.224;2024-02-23T01:31:53;3.00;2.50;2.00
76049;PMS7003;64967;50.234;19.224;2024-02-23T01:34:21;3.00;2.50;1.75
76049;PMS7003;64967;50.234;19.224;2024-02-23T01:36:48;0.00;0.00;0.00
76049;PMS7003;64967;50.234;19.224;2024-02-23T01:39:17;2.00;2.00;2.00
76049;PMS7003;64967;50.234;19.224;2024-02-23T01:41:44;0.25;0.00;0.00
76049;PMS7003;64967;50.234;19.224;2024-02-23T01:44:11;3.50;3.00;2.00
76049;PMS7003;64967;50.234;19.224;2024-02-23T01:46:38;2.50;1.25;1.00
76049;PMS7003;64967;50.234;19.224;2024-02-23T01:49:05;3.00;2.50;1.75
76049;PMS7003;64967;50.234;19.224;2024-02-23T01:51:34;2.00;2.00;1.50
76049;PMS7003;64967;50.234;19.224;2024-02-23T01:54:02;4.50;3.00;2.00
76049;PMS7003;64967;50.234;19.224;2024-02-23T01:56:30;5.50;4.75;3.75
76049;PMS7003;64967;50.234;19.224;2024-02-23T01:58:59;7.25;3.50;3.00
76049;PMS7003;64967;50.234;19.224;2024-02-23T02:01:26;3.00;2.50;2.00
76049;PMS7003;64967;50.234;19.224;2024-02-23T02:03:53;3.00;2.75;2.00
76049;PMS7003;64967;50.234;19.224;2024-02-23T02:06:23;2.75;2.00;2.00
76049;PMS7003;64967;50.234;19.224;2024-02-23T02:08:50;3.00;2.75;2.00
76049;PMS7003;64967;50.234;19.224;2024-02-23T02:11:17;3.00;3.00;2.50
76049;PMS7003;64967;50.234;19.224;2024-02-23T02:13:44;2.50;2.00;1.75
76049;PMS7003;64967;50.234;19.224;2024-02-23T02:16:11;2.25;2.25;2.00
76049;PMS7003;64967;50.234;19.224;2024-02-23T02:18:38;3.00;2.75;2.00
76049;PMS7003;64967;50.234;19.224;2024-02-23T02:21:04;2.00;2.00;2.00
76049;PMS7003;64967;50.234;19.224;2024-02-23T02:23:31;3.00;2.25;2.00
76049;PMS7003;64967;50.234;19.224;2024-02-23T02:25:58;1.25;1.00;1.00
76049;PMS7003;64967;50.234;19.224;2024-02-23T02:28:25;1.00;1.00;1.00
76049;PMS7003;64967;50.234;19.224;2024-02-23T02:30:52;2.00;2.00;2.00
76049;PMS7003;64967;50.234;19.224;2024-02-23T02:33:19;1.00;1.00;1.00
76049;PMS7003;64967;50.234;19.224;2024-02-23T02:35:47;1.25;1.25;1.00
76049;PMS7003;64967;50.234;19.224;2024-02-23T02:38:14;1.50;1.50;1.00
76049;PMS7003;64967;50.234;19.224;2024-02-23T02:40:40;3.00;2.75;2.00
76049;PMS7003;64967;50.234;19.224;2024-02-23T02:43:07;1.25;1.25;1.00
76049;PMS7003;64967;50.234;19.224;2024-02-23T02:45:34;2.00;2.00;1.75
76049;PMS7003;64967;50.234;19.224;2024-02-23T02:48:01;1.00;1.00;1.00
76049;PMS7003;64967;50.234;19.224;2024-02-23T02:50:30;1.50;1.00;1.00
76049;PMS7003;64967;50.234;19.224;2024-02-23T02:52:58;0.50;0.50;0.50
76049;PMS7003;64967;50.234;19.224;2024-02-23T02:55:24;1.50;1.50;1.00
76049;PMS7003;64967;50.234;19.224;2024-02-23T02:57:51;1.00;0.00;0.00
76049;PMS7003;64967;50.234;19.224;2024-02-23T03:00:18;1.00;1.00;1.00
76049;PMS7003;64967;50.234;19.224;2024-02-23T03:02:44;0.75;0.75;0.00
76049;PMS7003;64967;50.234;19.224;2024-02-23T03:05:11;0.00;0.00;0.00
76049;PMS7003;64967;50.234;19.224;2024-02-23T03:07:38;2.50;1.00;0.00
76049;PMS7003;64967;50.234;19.224;2024-02-23T03:10:05;0.50;0.00;0.00
76049;PMS7003;64967;50.234;19.224;2024-02-23T03:12:32;1.00;0.00;0.00
76049;PMS7003;64967;50.234;19.224;2024-02-23T03:14:59;0.00;0.00;0.00
76049;PMS7003;64967;50.234;19.224;2024-02-23T03:17:25;1.00;1.00;0.00
76049;PMS7003;64967;50.234;19.224;2024-02-23T03:19:52;0.25;0.00;0.00
76049;PMS7003;64967;50.234;19.224;2024-02-23T03:22:19;1.00;1.00;0.75
76049;PMS7003;64967;50.234;19.224;2024-02-23T03:24:46;0.50;0.00;0.00
76049;PMS7003;64967;50.234;19.224;2024-02-23T03:27:13;0.75;0.75;0.00
76049;PMS7003;64967;50.234;19.224;2024-02-23T03:29:40;1.00;1.00;1.00
76049;PMS7003;64967;50.234;19.224;2024-02-23T03:32:07;2.00;2.00;2.00
76049;PMS7003;64967;50.234;19.224;2024-02-23T03:34:34;2.25;1.75;1.50
76049;PMS7003;64967;50.234;19.224;2024-02-23T03:37:02;3.75;2.50;1.75
76049;PMS7003;64967;50.234;19.224;2024-02-23T03:39:29;1.75;1.75;1.50
76049;PMS7003;64967;50.234;19.224;2024-02-23T03:41:56;1.25;1.25;1.00
76049;PMS7003;64967;50.234;19.224;2024-02-23T03:44:22;2.50;2.00;1.75
76049;PMS7003;64967;50.234;19.224;2024-02-23T03:46:50;1.00;1.00;1.00
76049;PMS7003;64967;50.234;19.224;2024-02-23T03:49:17;2.00;2.00;1.50
76049;PMS7003;64967;50.234;19.224;2024-02-23T03:51:43;2.00;1.75;1.00
76049;PMS7003;64967;50.234;19.224;2024-02-23T03:54:10;1.00;1.00;1.00
76049;PMS7003;64967;50.234;19.224;2024-02-23T03:56:38;0.25;0.25;0.25
76049;PMS7003;64967;50.234;19.224;2024-02-23T03:59:06;1.00;1.00;1.00
76049;PMS7003;64967;50.234;19.224;2024-02-23T04:01:36;2.50;1.75;1.50
76049;PMS7003;64967;50.234;19.224;2024-02-23T04:04:04;0.00;0.00;0.00
76049;PMS7003;64967;50.234;19.224;2024-02-23T04:06:31;1.00;1.00;1.00
76049;PMS7003;64967;50.234;19.224;2024-02-23T04:08:59;1.00;1.00;1.00
76049;PMS7003;64967;50.234;19.224;2024-02-23T04:11:26;2.00;2.00;1.00
76049;PMS7003;64967;50.234;19.224;2024-02-23T04:13:53;2.75;2.75;2.00
76049;PMS7003;64967;50.234;19.224;2024-02-23T04:16:22;1.25;1.25;1.00
76049;PMS7003;64967;50.234;19.224;2024-02-23T04:18:50;2.00;2.00;1.00
76049;PMS7003;64967;50.234;19.224;2024-02-23T04:21:17;1.00;1.00;1.00
76049;PMS7003;64967;50.234;19.224;2024-02-23T04:23:44;1.00;1.00;1.00
76049;PMS7003;64967;50.234;19.224;2024-02-23T04:26:11;3.00;2.00;1.75
76049;PMS7003;64967;50.234;19.224;2024-02-23T04:28:38;2.00;2.00;1.00
76049;PMS7003;64967;50.234;19.224;2024-02-23T04:31:06;2.50;2.00;1.25
76049;PMS7003;64967;50.234;19.224;2024-02-23T04:33:37;2.00;2.00;2.00
76049;PMS7003;64967;50.234;19.224;2024-02-23T04:36:04;2.50;2.00;2.00
76049;PMS7003;64967;50.234;19.224;2024-02-23T04:38:32;1.00;1.00;1.00
76049;PMS7003;64967;50.234;19.224;2024-02-23T04:41:02;1.75;1.00;1.00
76049;PMS7003;64967;50.234;19.224;2024-02-23T04:43:30;2.00;2.00;1.00
76049;PMS7003;64967;50.234;19.224;2024-02-23T04:45:58;2.00;1.50;1.00
76049;PMS7003;64967;50.234;19.224;2024-02-23T04:48:24;2.50;2.00;1.00
76049;PMS7003;64967;50.234;19.224;2024-02-23T04:50:51;2.50;1.75;1.00
76049;PMS7003;64967;50.234;19.224;2024-02-23T04:53:18;1.50;1.00;1.00
76049;PMS7003;64967;50.234;19.224;2024-02-23T04:55:45;3.75;2.00;2.00
76049;PMS7003;64967;50.234;19.224;2024-02-23T04:58:12;6.50;6.00;4.00
76049;PMS7003;64967;50.234;19.224;2024-02-23T05:00:39;6.75;6.00;4.00
76049;PMS7003;64967;50.234;19.224;2024-02-23T05:03:06;2.25;2.25;2.00
76049;PMS7003;64967;50.234;19.224;2024-02-23T05:05:37;3.00;3.00;2.75
76049;PMS7003;64967;50.234;19.224;2024-02-23T05:08:04;7.00;5.50;4.00
76049;PMS7003;64967;50.234;19.224;2024-02-23T05:10:31;7.50;6.00;5.00
76049;PMS7003;64967;50.234;19.224;2024-02-23T05:12:58;6.00;6.00;4.00
76049;PMS7003;64967;50.234;19.224;2024-02-23T05:15:24;3.50;3.50;3.50
76049;PMS7003;64967;50.234;19.224;2024-02-23T05:17:51;6.00;4.50;3.75
76049;PMS7003;64967;50.234;19.224;2024-02-23T05:20:18;3.00;3.00;2.50
76049;PMS7003;64967;50.234;19.224;2024-02-23T05:22:44;7.00;4.00;4.00
76049;PMS7003;64967;50.234;19.224;2024-02-23T05:25:11;7.75;4.00;4.00
76049;PMS7003;64967;50.234;19.224;2024-02-23T05:27:38;2.75;2.00;1.50
76049;PMS7003;64967;50.234;19.224;2024-02-23T05:30:05;9.50;6.50;4.50
76049;PMS7003;64967;50.234;19.224;2024-02-23T05:32:33;6.25;4.50;3.75
76049;PMS7003;64967;50.234;19.224;2024-02-23T05:35:00;7.00;6.00;4.00
76049;PMS7003;64967;50.234;19.224;2024-02-23T05:37:27;5.25;4.00;3.00
76049;PMS7003;64967;50.234;19.224;2024-02-23T05:39:53;5.00;4.25;4.00
76049;PMS7003;64967;50.234;19.224;2024-02-23T05:42:20;5.00;5.00;3.00
76049;PMS7003;64967;50.234;19.224;2024-02-23T05:44:47;3.25;3.00;3.00
76049;PMS7003;64967;50.234;19.224;2024-02-23T05:47:15;6.50;4.00;2.75
76049;PMS7003;64967;50.234;19.224;2024-02-23T05:49:42;5.00;3.00;2.00
76049;PMS7003;64967;50.234;19.224;2024-02-23T05:52:08;8.00;6.75;5.50
76049;PMS7003;64967;50.234;19.224;2024-02-23T05:54:35;10.50;9.25;8.00
76049;PMS7003;64967;50.234;19.224;2024-02-23T05:57:02;11.50;8.75;8.00
76049;PMS7003;64967;50.234;19.224;2024-02-23T05:59:29;15.50;9.75;8.00
76049;PMS7003;64967;50.234;19.224;2024-02-23T06:01:56;18.75;14.00;9.00
76049;PMS7003;64967;50.234;19.224;2024-02-23T06:04:24;17.50;14.25;9.00
76049;PMS7003;64967;50.234;19.224;2024-02-23T06:06:51;29.00;24.25;17.00
76049;PMS7003;64967;50.234;19.224;2024-02-23T06:09:18;22.75;20.00;12.25
76049;PMS7003;64967;50.234;19.224;2024-02-23T06:11:45;17.75;14.00;9.25
76049;PMS7003;64967;50.234;19.224;2024-02-23T06:14:13;14.75;13.50;9.00
76049;PMS7003;64967;50.234;19.224;2024-02-23T06:16:39;8.75;7.25;4.00
76049;PMS7003;64967;50.234;19.224;2024-02-23T06:19:07;8.50;8.00;6.75
76049;PMS7003;64967;50.234;19.224;2024-02-23T06:21:33;7.00;7.00;4.75
76049;PMS7003;64967;50.234;19.224;2024-02-23T06:24:00;5.50;4.00;3.00
76049;PMS7003;64967;50.234;19.224;2024-02-23T06:26:27;1.75;1.75;1.75
76049;PMS7003;64967;50.234;19.224;2024-02-23T06:28:54;3.50;3.50;3.00
76049;PMS7003;64967;50.234;19.224;2024-02-23T06:31:21;3.00;3.00;2.25
76049;PMS7003;64967;50.234;19.224;2024-02-23T06:33:48;2.25;2.25;2.00
76049;PMS7003;64967;50.234;19.224;2024-02-23T06:36:16;2.75;2.75;2.00
76049;PMS7003;64967;50.234;19.224;2024-02-23T06:38:42;1.00;1.00;1.00
76049;PMS7003;64967;50.234;19.224;2024-02-23T06:41:10;1.25;1.00;0.00
76049;PMS7003;64967;50.234;19.224;2024-02-23T06:43:37;1.00;1.00;1.00
76049;PMS7003;64967;50.234;19.224;2024-02-23T06:46:06;2.00;0.25;0.25
76049;PMS7003;64967;50.234;19.224;2024-02-23T06:48:34;0.00;0.00;0.00
76049;PMS7003;64967;50.234;19.224;2024-02-23T06:51:01;0.00;0.00;0.00
76049;PMS7003;64967;50.234;19.224;2024-02-23T06:53:28;2.00;1.00;1.00
76049;PMS7003;64967;50.234;19.224;2024-02-23T06:55:55;3.00;3.00;3.00
76049;PMS7003;64967;50.234;19.224;2024-02-23T06:58:22;2.75;2.00;2.00
76049;PMS7003;64967;50.234;19.224;2024-02-23T07:00:48;4.00;4.00;3.25
76049;PMS7003;64967;50.234;19.224;2024-02-23T07:03:15;4.00;4.00;3.75
76049;PMS7003;64967;50.234;19.224;2024-02-23T07:05:43;5.50;3.75;3.25
76049;PMS7003;64967;50.234;19.224;2024-02-23T07:08:11;8.50;7.25;4.50
76049;PMS7003;64967;50.234;19.224;2024-02-23T07:10:38;4.50;4.00;3.00
76049;PMS7003;64967;50.234;19.224;2024-02-23T07:13:06;5.75;5.50;4.00
76049;PMS7003;64967;50.234;19.224;2024-02-23T07:15:34;7.00;6.25;6.00
76049;PMS7003;64967;50.234;19.224;2024-02-23T07:18:02;8.25;7.00;5.75
76049;PMS7003;64967;50.234;19.224;2024-02-23T07:20:30;8.00;7.50;6.00
76049;PMS7003;64967;50.234;19.224;2024-02-23T07:22:57;6.00;6.00;5.50
76049;PMS7003;64967;50.234;19.224;2024-02-23T07:25:23;9.25;9.00;7.00
76049;PMS7003;64967;50.234;19.224;2024-02-23T07:27:50;10.50;7.50;6.00
76049;PMS7003;64967;50.234;19.224;2024-02-23T07:30:17;9.25;7.25;6.00
76049;PMS7003;64967;50.234;19.224;2024-02-23T07:32:44;5.50;5.50;4.50
76049;PMS7003;64967;50.234;19.224;2024-02-23T07:35:15;7.25;6.25;5.50
76049;PMS7003;64967;50.234;19.224;2024-02-23T07:37:41;9.50;8.50;7.00
76049;PMS7003;64967;50.234;19.224;2024-02-23T07:40:08;8.75;7.50;6.75
76049;PMS7003;64967;50.234;19.224;2024-02-23T07:42:35;6.25;4.50;4.00
76049;PMS7003;64967;50.234;19.224;2024-02-23T07:45:03;7.50;5.50;4.75
76049;PMS7003;64967;50.234;19.224;2024-02-23T07:47:30;7.00;6.00;4.00
76049;PMS7003;64967;50.234;19.224;2024-02-23T07:49:58;2.50;2.00;1.50
76049;PMS7003;64967;50.234;19.224;2024-02-23T07:52:25;4.00;3.50;2.00
76049;PMS7003;64967;50.234;19.224;2024-02-23T07:54:52;4.00;4.00;3.00
76049;PMS7003;64967;50.234;19.224;2024-02-23T07:57:19;4.50;3.25;3.25
76049;PMS7003;64967;50.234;19.224;2024-02-23T07:59:46;6.00;4.00;3.00
76049;PMS7003;64967;50.234;19.224;2024-02-23T08:02:14;3.00;3.00;3.00
76049;PMS7003;64967;50.234;19.224;2024-02-23T08:04:41;6.50;4.00;3.75
76049;PMS7003;64967;50.234;19.224;2024-02-23T08:07:09;4.50;4.50;3.00
76049;PMS7003;64967;50.234;19.224;2024-02-23T08:09:35;3.50;3.50;3.00
76049;PMS7003;64967;50.234;19.224;2024-02-23T08:12:02;6.00;5.25;3.50
76049;PMS7003;64967;50.234;19.224;2024-02-23T08:14:29;5.00;3.00;3.00
76049;PMS7003;64967;50.234;19.224;2024-02-23T08:16:56;4.50;4.00;3.00
76049;PMS7003;64967;50.234;19.224;2024-02-23T08:19:22;3.75;3.00;3.00
76049;PMS7003;64967;50.234;19.224;2024-02-23T08:21:49;3.50;3.00;2.50
76049;PMS7003;64967;50.234;19.224;2024-02-23T08:24:16;5.00;4.00;3.00
76049;PMS7003;64967;50.234;19.224;2024-02-23T08:26:43;2.00;2.00;2.00
76049;PMS7003;64967;50.234;19.224;2024-02-23T08:29:10;0.00;0.00;0.00
76049;PMS7003;64967;50.234;19.224;2024-02-23T08:31:37;3.00;2.00;1.00
76049;PMS7003;64967;50.234;19.224;2024-02-23T08:34:07;2.50;2.00;2.00
76049;PMS7003;64967;50.234;19.224;2024-02-23T08:36:34;3.00;3.00;3.00
76049;PMS7003;64967;50.234;19.224;2024-02-23T08:39:01;3.75;3.00;2.00
76049;PMS7003;64967;50.234;19.224;2024-02-23T08:41:29;3.25;2.50;2.00
76049;PMS7003;64967;50.234;19.224;2024-02-23T08:43:56;2.50;2.00;2.00
76049;PMS7003;64967;50.234;19.224;2024-02-23T08:46:23;3.00;3.00;2.00
76049;PMS7003;64967;50.234;19.224;2024-02-23T08:48:50;2.25;2.25;2.00
76049;PMS7003;64967;50.234;19.224;2024-02-23T08:51:17;4.00;3.50;2.75
76049;PMS7003;64967;50.234;19.224;2024-02-23T08:53:43;4.50;4.00;3.00
76049;PMS7003;64967;50.234;19.224;2024-02-23T08:56:11;5.75;3.00;3.00
76049;PMS7003;64967;50.234;19.224;2024-02-23T08:58:38;7.25;6.00;3.75
76049;PMS7003;64967;50.234;19.224;2024-02-23T09:01:05;4.50;4.50;4.00
76049;PMS7003;64967;50.234;19.224;2024-02-23T09:03:32;6.00;5.50;4.00
76049;PMS7003;64967;50.234;19.224;2024-02-23T09:05:58;8.25;6.00;4.00
76049;PMS7003;64967;50.234;19.224;2024-02-23T09:08:25;12.00;8.00;7.00
76049;PMS7003;64967;50.234;19.224;2024-02-23T09:10:52;9.00;8.75;6.00
76049;PMS7003;64967;50.234;19.224;2024-02-23T09:13:19;9.00;8.75;6.75
76049;PMS7003;64967;50.234;19.224;2024-02-23T09:15:46;10.50;7.25;6.00
76049;PMS7003;64967;50.234;19.224;2024-02-23T09:18:12;8.75;7.75;5.00
76049;PMS7003;64967;50.234;19.224;2024-02-23T09:20:39;5.25;4.00;3.25
76049;PMS7003;64967;50.234;19.224;2024-02-23T09:23:06;11.25;6.50;5.00
76049;PMS7003;64967;50.234;19.224;2024-02-23T09:25:33;5.50;4.00;3.25
76049;PMS7003;64967;50.234;19.224;2024-02-23T09:28:00;7.00;7.00;3.00
76049;PMS7003;64967;50.234;19.224;2024-02-23T09:30:26;6.75;6.00;5.50
76049;PMS7003;64967;50.234;19.224;2024-02-23T09:32:53;4.00;4.00;3.00
76049;PMS7003;64967;50.234;19.224;2024-02-23T09:35:21;6.75;5.50;3.00
76049;PMS7003;64967;50.234;19.224;2024-02-23T09:37:47;4.00;3.75;3.50
76049;PMS7003;64967;50.234;19.224;2024-02-23T09:40:14;2.75;2.25;2.00
76049;PMS7003;64967;50.234;19.224;2024-02-23T09:42:42;4.00;4.00;3.25
76049;PMS7003;64967;50.234;19.224;2024-02-23T09:45:14;3.50;3.00;2.00
76049;PMS7003;64967;50.234;19.224;2024-02-23T09:47:42;2.75;2.25;2.00
76049;PMS7003;64967;50.234;19.224;2024-02-23T09:50:10;3.50;2.25;2.25
76049;PMS7003;64967;50.234;19.224;2024-02-23T09:52:38;1.00;1.00;0.25
76049;PMS7003;64967;50.234;19.224;2024-02-23T09:55:05;4.00;3.00;2.00
76049;PMS7003;64967;50.234;19.224;2024-02-23T09:57:32;2.75;2.50;2.00
76049;PMS7003;64967;50.234;19.224;2024-02-23T10:00:01;4.50;3.00;2.00
76049;PMS7003;64967;50.234;19.224;2024-02-23T10:02:32;3.00;2.25;2.00
76049;PMS7003;64967;50.234;19.224;2024-02-23T10:04:59;3.00;3.00;2.75
76049;PMS7003;64967;50.234;19.224;2024-02-23T10:07:29;3.00;2.00;2.00
76049;PMS7003;64967;50.234;19.224;2024-02-23T10:09:56;4.25;3.00;3.00
76049;PMS7003;64967;50.234;19.224;2024-02-23T10:12:23;3.75;3.00;3.00
76049;PMS7003;64967;50.234;19.224;2024-02-23T10:14:50;3.75;3.00;2.00
76049;PMS7003;64967;50.234;19.224;2024-02-23T10:17:18;3.75;3.00;2.00
76049;PMS7003;64967;50.234;19.224;2024-02-23T10:19:46;3.00;2.25;2.00
76049;PMS7003;64967;50.234;19.224;2024-02-23T10:22:14;2.50;2.00;2.00
76049;PMS7003;64967;50.234;19.224;2024-02-23T10:24:42;4.50;3.50;3.00
76049;PMS7003;64967;50.234;19.224;2024-02-23T10:27:09;3.75;3.00;2.00
76049;PMS7003;64967;50.234;19.224;2024-02-23T10:29:36;4.00;3.00;2.00
76049;PMS7003;64967;50.234;19.224;2024-02-23T10:32:03;5.00;3.00;3.00
76049;PMS7003;64967;50.234;19.224;2024-02-23T10:34:32;3.25;3.00;2.00
76049;PMS7003;64967;50.234;19.224;2024-02-23T10:37:03;3.00;3.00;3.00
76049;PMS7003;64967;50.234;19.224;2024-02-23T10:39:32;3.75;3.00;2.00
76049;PMS7003;64967;50.234;19.224;2024-02-23T10:42:03;2.00;2.00;2.00
76049;PMS7003;64967;50.234;19.224;2024-02-23T10:44:31;2.00;2.00;1.00
76049;PMS7003;64967;50.234;19.224;2024-02-23T10:46:58;3.00;2.25;2.00
76049;PMS7003;64967;50.234;19.224;2024-02-23T10:49:26;4.00;3.00;2.00
76049;PMS7003;64967;50.234;19.224;2024-02-23T10:51:54;1.50;1.25;1.00
76049;PMS7003;64967;50.234;19.224;2024-02-23T10:54:21;1.00;1.00;1.00
76049;PMS7003;64967;50.234;19.224;2024-02-23T10:56:49;3.00;2.00;1.00
76049;PMS7003;64967;50.234;19.224;2024-02-23T10:59:17;1.00;1.00;1.00
76049;PMS7003;64967;50.234;19.224;2024-02-23T11:01:49;3.00;2.00;1.25
76049;PMS7003;64967;50.234;19.224;2024-02-23T11:04:17;2.00;2.00;1.75
76049;PMS7003;64967;50.234;19.224;2024-02-23T11:06:50;1.00;1.00;1.00
76049;PMS7003;64967;50.234;19.224;2024-02-23T11:09:31;2.00;1.50;1.00
76049;PMS7003;64967;50.234;19.224;2024-02-23T11:11:58;3.75;3.00;2.00
76049;PMS7003;64967;50.234;19.224;2024-02-23T11:14:44;3.25;2.50;2.00
76049;PMS7003;64967;50.234;19.224;2024-02-23T11:17:17;1.75;1.00;1.00
76049;PMS7003;64967;50.234;19.224;2024-02-23T11:19:48;0.00;0.00;0.00
76049;PMS7003;64967;50.234;19.224;2024-02-23T11:22:33;2.25;2.00;1.00
76049;PMS7003;64967;50.234;19.224;2024-02-23T11:25:05;5.75;3.00;2.00
76049;PMS7003;64967;50.234;19.224;2024-02-23T11:27:40;3.50;2.00;2.00
76049;PMS7003;64967;50.234;19.224;2024-02-23T11:30:09;2.00;2.00;1.50
76049;PMS7003;64967;50.234;19.224;2024-02-23T11:32:38;2.00;2.00;1.00
76049;PMS7003;64967;50.234;19.224;2024-02-23T11:35:11;1.50;1.50;1.00
76049;PMS7003;64967;50.234;19.224;2024-02-23T11:37:47;1.00;1.00;1.00
76049;PMS7003;64967;50.234;19.224;2024-02-23T11:40:23;2.00;2.00;1.00
76049;PMS7003;64967;50.234;19.224;2024-02-23T11:42:50;2.25;2.25;2.00
76049;PMS7003;64967;50.234;19.224;2024-02-23T11:45:17;2.00;2.00;1.00
76049;PMS7003;64967;50.234;19.224;2024-02-23T11:47:44;1.25;1.25;1.25
76049;PMS7003;64967;50.234;19.224;2024-02-23T11:50:11;1.00;1.00;1.00
76049;PMS7003;64967;50.234;19.224;2024-02-23T11:52:39;3.25;1.75;1.00
76049;PMS7003;64967;50.234;19.224;2024-02-23T11:55:06;2.00;2.00;1.00
76049;PMS7003;64967;50.234;19.224;2024-02-23T11:57:34;2.00;2.00;2.00
76049;PMS7003;64967;50.234;19.224;2024-02-23T12:00:13;3.50;3.00;2.00
76049;PMS7003;64967;50.234;19.224;2024-02-23T12:02:42;3.00;2.00;2.00
76049;PMS7003;64967;50.234;19.224;2024-02-23T12:05:10;2.00;2.00;1.00
76049;PMS7003;64967;50.234;19.224;2024-02-23T12:07:37;1.50;1.00;1.00
76049;PMS7003;64967;50.234;19.224;2024-02-23T12:10:04;3.00;2.00;2.00
76049;PMS7003;64967;50.234;19.224;2024-02-23T12:12:32;2.50;2.50;2.00
76049;PMS7003;64967;50.234;19.224;2024-02-23T12:14:59;1.00;1.00;1.00
76049;PMS7003;64967;50.234;19.224;2024-02-23T12:17:26;2.75;2.00;2.00
76049;PMS7003;64967;50.234;19.224;2024-02-23T12:20:00;2.00;2.00;1.00
76049;PMS7003;64967;50.234;19.224;2024-02-23T12:22:28;3.00;3.00;2.00
76049;PMS7003;64967;50.234;19.224;2024-02-23T12:24:58;2.00;2.00;1.25
76049;PMS7003;64967;50.234;19.224;2024-02-23T12:27:26;2.00;2.00;2.00
76049;PMS7003;64967;50.234;19.224;2024-02-23T12:29:53;3.00;3.00;2.00
76049;PMS7003;64967;50.234;19.224;2024-02-23T12:32:20;1.50;0.75;0.50
76049;PMS7003;64967;50.234;19.224;2024-02-23T12:34:48;2.00;1.00;1.00
76049;PMS7003;64967;50.234;19.224;2024-02-23T12:37:15;3.00;2.00;2.00
76049;PMS7003;64967;50.234;19.224;2024-02-23T12:39:45;2.00;2.00;1.25
76049;PMS7003;64967;50.234;19.224;2024-02-23T12:42:11;2.25;2.25;2.00
76049;PMS7003;64967;50.234;19.224;2024-02-23T12:44:38;3.00;2.00;1.00
76049;PMS7003;64967;50.234;19.224;2024-02-23T12:47:05;2.00;2.00;2.00
76049;PMS7003;64967;50.234;19.224;2024-02-23T12:49:32;2.00;1.00;1.00
76049;PMS7003;64967;50.234;19.224;2024-02-23T12:51:59;0.00;0.00;0.00
76049;PMS7003;64967;50.234;19.224;2024-02-23T12:54:25;1.75;1.50;1.00
76049;PMS7003;64967;50.234;19.224;2024-02-23T12:56:52;1.50;1.50;1.00
76049;PMS7003;64967;50.234;19.224;2024-02-23T12:59:19;2.00;1.00;1.00
76049;PMS7003;64967;50.234;19.224;2024-02-23T13:01:45;2.00;2.00;1.75
76049;PMS7003;64967;50.234;19.224;2024-02-23T13:04:17;2.25;1.00;1.00
76049;PMS7003;64967;50.234;19.224;2024-02-23T13:06:44;3.75;3.25;2.50
76049;PMS7003;64967;50.234;19.224;2024-02-23T13:09:10;2.25;1.00;1.00
76049;PMS7003;64967;50.234;19.224;2024-02-23T13:11:39;0.50;0.25;0.00
76049;PMS7003;64967;50.234;19.224;2024-02-23T13:14:06;2.00;1.00;0.75
76049;PMS7003;64967;50.234;19.224;2024-02-23T13:16:33;2.00;1.00;1.00
76049;PMS7003;64967;50.234;19.224;2024-02-23T13:18:59;0.00;0.00;0.00
76049;PMS7003;64967;50.234;19.224;2024-02-23T13:21:26;1.75;1.00;1.00
76049;PMS7003;64967;50.234;19.224;2024-02-23T13:23:53;3.50;3.00;2.00
76049;PMS7003;64967;50.234;19.224;2024-02-23T13:26:20;5.50;3.00;2.50
76049;PMS7003;64967;50.234;19.224;2024-02-23T13:28:46;1.00;1.00;1.00
76049;PMS7003;64967;50.234;19.224;2024-02-23T13:31:13;1.00;1.00;1.00
76049;PMS7003;64967;50.234;19.224;2024-02-23T13:33:41;2.00;1.00;1.00
76049;PMS7003;64967;50.234;19.224;2024-02-23T13:36:08;3.00;2.00;1.00
76049;PMS7003;64967;50.234;19.224;2024-02-23T13:38:35;1.25;0.75;0.50
76049;PMS7003;64967;50.234;19.224;2024-02-23T13:41:05;2.00;0.75;0.75
76049;PMS7003;64967;50.234;19.224;2024-02-23T13:43:32;0.00;0.00;0.00
76049;PMS7003;64967;50.234;19.224;2024-02-23T13:46:00;1.00;1.00;1.00
76049;PMS7003;64967;50.234;19.224;2024-02-23T13:48:26;1.00;1.00;1.00
76049;PMS7003;64967;50.234;19.224;2024-02-23T13:50:53;1.00;1.00;1.00
76049;PMS7003;64967;50.234;19.224;2024-02-23T13:53:20;2.00;2.00;1.75
76049;PMS7003;64967;50.234;19.224;2024-02-23T13:55:48;0.00;0.00;0.00
76049;PMS7003;64967;50.234;19.224;2024-02-23T13:58:16;1.00;0.50;0.50
76049;PMS7003;64967;50.234;19.224;2024-02-23T14:00:43;1.50;1.25;1.00
76049;PMS7003;64967;50.234;19.224;2024-02-23T14:03:11;1.00;1.00;1.00
76049;PMS7003;64967;50.234;19.224;2024-02-23T14:05:44;1.00;1.00;1.00
76049;PMS7003;64967;50.234;19.224;2024-02-23T14:08:12;1.00;1.00;0.75
76049;PMS7003;64967;50.234;19.224;2024-02-23T14:10:39;2.00;2.00;2.00